North Pharsalia, New York
Current Conditions -  °F | °C
As of 1:55 AM on Friday 19 Dec 2014 (Local Time) from KN03 Reporting Station
Light Snow Light Snow  
Wind Chill: 20°   Ceiling: 1500
Heat Index: 28°   Visibility: 5mi
Dew Point: 27°   Wind: 8mph
Humidity: 93%   Direction: 300°WNW
Pressure: 30"   Gusts: NA
Location:  42.6183°N, 75.685°W
Report Text: KN03 190655Z AUTO 30007KT 258V358 5SM -SN BKN015 OVC021 M02/M03 A3000 RMK AO2
Loading
Personal Weather Stations






























Interactive Weather Map New forecast layout! Learn more

10-Day Weather Forecast

Advertisements
Track Severe Weather on mobile